Time;durP1;ratioP1;P1;durP2;ratioP2;P2;SDS_P1;SDS_P2;PMS_P1;PMS_P2;Temp;Humidity;BMP_temperature;BMP_pressure;BME280_temperature;BME280_humidity;BME280_pressure;Samples;Min_cycle;Max_cycle;Signal;HPM_P1;HPM_P2
2023/04/22 00:00:10;;;;;;;8.40;4.20;;;11.60;99.90;;;;;;5034745;28;20317;-72
2023/04/22 00:02:37;;;;;;;6.20;3.80;;;11.60;99.90;;;;;;5025056;28;20033;-71
2023/04/22 00:05:04;;;;;;;;;;;11.60;99.90;;;;;;5028578;28;20386;-71
2023/04/22 00:07:29;;;;;;;8.07;3.88;;;11.50;99.90;;;;;;5054617;28;20063;-72
2023/04/22 00:09:55;;;;;;;7.78;4.35;;;11.50;99.90;;;;;;5051853;28;20036;-71
2023/04/22 00:12:21;;;;;;;6.20;4.03;;;11.50;99.90;;;;;;5032818;28;20044;-72
2023/04/22 00:14:47;;;;;;;6.93;4.53;;;11.40;99.90;;;;;;5051868;28;20131;-72
2023/04/22 00:17:12;;;;;;;6.55;3.92;;;11.40;99.90;;;;;;5031882;28;20266;-72
2023/04/22 00:19:39;;;;;;;6.97;4.10;;;11.40;99.90;;;;;;5035008;28;20067;-72
2023/04/22 00:22:05;;;;;;;7.38;3.83;;;11.40;99.90;;;;;;5031775;28;21627;-71
2023/04/22 00:24:31;;;;;;;7.28;4.50;;;11.40;99.90;;;;;;5035778;28;20110;-71
2023/04/22 00:26:57;;;;;;;6.00;4.03;;;11.30;99.90;;;;;;5036357;28;20565;-71
2023/04/22 00:29:24;;;;;;;6.90;3.83;;;11.30;99.90;;;;;;5016721;28;20136;-72
2023/04/22 00:31:49;;;;;;;8.35;4.45;;;11.20;99.90;;;;;;5033077;28;20474;-72
2023/04/22 00:34:16;;;;;;;7.40;4.30;;;11.20;99.90;;;;;;5048006;28;20097;-72
2023/04/22 00:36:45;;;;;;;13.65;6.70;;;11.20;99.90;;;;;;5049443;28;20098;-71
2023/04/22 00:39:11;;;;;;;11.88;5.88;;;11.10;99.90;;;;;;5032882;28;20048;-71
2023/04/22 00:41:41;;;;;;;11.65;5.95;;;11.00;99.90;;;;;;5030784;28;20046;-71
2023/04/22 00:44:10;;;;;;;7.82;4.93;;;11.00;99.90;;;;;;5031202;28;20152;-71
2023/04/22 00:46:38;;;;;;;7.55;4.82;;;10.90;99.90;;;;;;5030460;28;20425;-71
2023/04/22 00:49:05;;;;;;;9.57;6.47;;;10.90;99.90;;;;;;5033609;28;20047;-72
2023/04/22 00:51:31;;;;;;;10.00;5.38;;;10.80;99.90;;;;;;5024573;28;20052;-72
2023/04/22 00:53:57;;;;;;;7.85;5.28;;;10.80;99.90;;;;;;5014795;28;20052;-72
2023/04/22 00:56:26;;;;;;;8.32;5.30;;;10.70;99.90;;;;;;5014910;28;20195;-72
2023/04/22 00:58:53;;;;;;;9.27;5.63;;;10.70;99.90;;;;;;5037655;28;20237;-71
2023/04/22 01:01:18;;;;;;;9.00;5.57;;;10.70;99.90;;;;;;5033636;28;20594;-71
2023/04/22 01:03:46;;;;;;;8.67;5.73;;;10.60;99.90;;;;;;5034031;28;20049;-71
2023/04/22 01:06:12;;;;;;;11.68;6.60;;;10.60;99.90;;;;;;5052123;28;20293;-72
2023/04/22 01:08:39;;;;;;;10.65;6.88;;;10.50;99.90;;;;;;5039786;28;20098;-71
2023/04/22 01:11:05;;;;;;;9.73;5.20;;;10.50;99.90;;;;;;5037295;28;20057;-72
2023/04/22 01:13:31;;;;;;;12.88;6.50;;;10.50;99.90;;;;;;5047430;28;20051;-71
2023/04/22 01:15:59;;;;;;;11.00;5.25;;;10.40;99.90;;;;;;5030094;28;20036;-71
2023/04/22 01:18:25;;;;;;;9.63;5.40;;;10.40;99.90;;;;;;5038027;28;20501;-72
2023/04/22 01:20:51;;;;;;;;;;;10.30;99.90;;;;;;5054233;28;20041;-72
2023/04/22 01:23:21;;;;;;;10.70;6.13;;;10.30;99.90;;;;;;5031297;28;19916;-71
2023/04/22 01:25:47;;;;;;;9.63;5.57;;;10.30;99.90;;;;;;5029338;28;20524;-72
2023/04/22 01:28:14;;;;;;;7.43;4.68;;;10.30;99.90;;;;;;5055595;28;20472;-71
2023/04/22 01:30:40;;;;;;;;;;;10.20;99.90;;;;;;5048320;28;20052;-71
2023/04/22 01:33:05;;;;;;;5.90;3.97;;;10.20;99.90;;;;;;5060340;28;20413;-71
2023/04/22 01:35:35;;;;;;;9.10;4.88;;;10.20;99.90;;;;;;5024351;28;20407;-71
2023/04/22 01:38:03;;;;;;;5.78;4.32;;;10.10;99.90;;;;;;5034369;28;20048;-71
2023/04/22 01:40:30;;;;;;;8.65;4.45;;;10.10;99.90;;;;;;5052531;28;20116;-71
2023/04/22 01:42:57;;;;;;;6.97;3.95;;;10.10;99.90;;;;;;5040961;28;20414;-71
2023/04/22 01:45:23;;;;;;;10.60;4.15;;;10.10;99.90;;;;;;5035816;28;20063;-71
2023/04/22 01:47:49;;;;;;;6.83;4.17;;;10.10;99.90;;;;;;5026206;28;20402;-71
2023/04/22 01:50:15;;;;;;;6.50;4.28;;;10.10;99.90;;;;;;5040366;28;20068;-71
2023/04/22 01:52:40;;;;;;;7.70;4.03;;;10.10;99.90;;;;;;5021890;28;20049;-71
2023/04/22 01:55:07;;;;;;;6.00;3.80;;;10.10;99.90;;;;;;5033059;28;20713;-71
2023/04/22 01:57:33;;;;;;;5.18;3.35;;;10.00;99.90;;;;;;5037891;28;20135;-71
2023/04/22 01:59:59;;;;;;;6.27;3.93;;;10.00;99.90;;;;;;5038343;28;20131;-71
2023/04/22 02:02:28;;;;;;;9.55;4.13;;;10.00;99.90;;;;;;5035485;28;20036;-72
2023/04/22 02:04:53;;;;;;;6.85;4.40;;;9.90;99.90;;;;;;5032546;28;20041;-71
2023/04/22 02:07:19;;;;;;;7.50;4.33;;;10.00;99.90;;;;;;5033587;28;20051;-72
2023/04/22 02:09:44;;;;;;;6.07;4.07;;;9.90;99.90;;;;;;5036398;28;20342;-71
2023/04/22 02:12:10;;;;;;;6.63;4.23;;;9.90;99.90;;;;;;5030608;28;20363;-71
2023/04/22 02:14:36;;;;;;;7.20;4.43;;;9.80;99.90;;;;;;5030135;28;20044;-71
2023/04/22 02:17:02;;;;;;;8.63;5.47;;;9.90;99.90;;;;;;5038088;28;20040;-72
2023/04/22 02:19:35;;;;;;;8.10;4.65;;;9.90;99.90;;;;;;5036314;28;20044;-71
2023/04/22 02:22:01;;;;;;;7.85;4.68;;;9.80;99.90;;;;;;5033513;28;20367;-71
2023/04/22 02:24:26;;;;;;;7.43;4.47;;;9.80;99.90;;;;;;5036981;28;20043;-71
2023/04/22 02:26:52;;;;;;;8.27;5.23;;;9.80;99.90;;;;;;5035614;28;20723;-71
2023/04/22 02:29:18;;;;;;;11.87;4.23;;;9.80;99.90;;;;;;5052532;28;20265;-71
2023/04/22 02:31:43;;;;;;;6.27;4.50;;;9.80;99.90;;;;;;5035109;28;20047;-72
2023/04/22 02:34:09;;;;;;;8.77;5.37;;;9.70;99.90;;;;;;5026430;28;20036;-71
2023/04/22 02:36:34;;;;;;;7.07;4.97;;;9.70;99.90;;;;;;5050631;28;20033;-71
2023/04/22 02:39:04;;;;;;;7.60;4.90;;;9.70;99.90;;;;;;5065781;22;20413;-71
2023/04/22 02:41:30;;;;;;;7.05;4.82;;;9.70;99.90;;;;;;5029383;28;20044;-72
2023/04/22 02:43:56;;;;;;;8.55;5.13;;;9.70;99.90;;;;;;5036809;28;20072;-71
2023/04/22 02:46:22;;;;;;;6.83;4.70;;;9.60;99.90;;;;;;5038158;28;20049;-71
2023/04/22 02:48:48;;;;;;;8.37;5.03;;;9.60;99.90;;;;;;5049722;28;20497;-71
2023/04/22 02:51:14;;;;;;;10.98;5.40;;;9.60;99.90;;;;;;5033434;28;20618;-71
2023/04/22 02:53:40;;;;;;;8.05;5.20;;;9.50;99.90;;;;;;5053360;28;20047;-71
2023/04/22 02:56:07;;;;;;;8.90;5.07;;;9.40;99.90;;;;;;5041959;28;20429;-71
2023/04/22 02:58:33;;;;;;;8.88;4.80;;;9.50;99.90;;;;;;5021261;28;20358;-71
2023/04/22 03:00:58;;;;;;;8.47;5.20;;;9.40;99.90;;;;;;5043681;28;20338;-71
2023/04/22 03:03:24;;;;;;;7.73;5.10;;;9.40;99.90;;;;;;5038710;28;20288;-71
2023/04/22 03:05:50;;;;;;;8.80;5.28;;;9.40;99.90;;;;;;5034097;28;20462;-71
2023/04/22 03:08:18;;;;;;;8.17;5.07;;;9.40;99.90;;;;;;5042896;28;20428;-71
2023/04/22 03:10:44;;;;;;;7.78;5.05;;;9.30;99.90;;;;;;5056392;28;20516;-71
2023/04/22 03:13:12;;;;;;;5.80;4.60;;;9.30;99.90;;;;;;5043328;28;20326;-71
2023/04/22 03:15:39;;;;;;;8.50;5.45;;;9.30;99.90;;;;;;5021741;28;20119;-71
2023/04/22 03:18:05;;;;;;;7.95;5.32;;;9.20;99.90;;;;;;5036297;28;20076;-71
2023/04/22 03:20:30;;;;;;;6.93;4.73;;;9.20;99.90;;;;;;5039599;28;20580;-71
2023/04/22 03:22:56;;;;;;;7.63;5.47;;;9.20;99.90;;;;;;5035926;28;20048;-71
2023/04/22 03:25:21;;;;;;;10.43;5.70;;;9.20;99.90;;;;;;5043131;28;20509;-71
2023/04/22 03:27:47;;;;;;;10.73;6.17;;;9.10;99.90;;;;;;5036066;28;20058;-71
2023/04/22 03:30:13;;;;;;;12.45;6.20;;;9.10;99.90;;;;;;5030989;28;20040;-72
2023/04/22 03:32:39;;;;;;;12.15;6.30;;;9.10;99.90;;;;;;5031330;28;20045;-71
2023/04/22 03:35:05;;;;;;;8.67;5.47;;;9.00;99.90;;;;;;5055058;28;20183;-72
2023/04/22 03:37:31;;;;;;;9.07;5.88;;;9.00;99.90;;;;;;5044904;28;20044;-71
2023/04/22 03:39:56;;;;;;;8.18;5.25;;;9.00;99.90;;;;;;5033064;28;20041;-71
2023/04/22 03:42:22;;;;;;;8.37;5.33;;;9.00;99.90;;;;;;5033419;28;20456;-71
2023/04/22 03:44:48;;;;;;;8.40;6.20;;;8.90;99.90;;;;;;5020720;28;20040;-71
2023/04/22 03:47:13;;;;;;;10.53;5.40;;;8.90;99.90;;;;;;5017552;28;20052;-71
2023/04/22 03:49:39;;;;;;;10.23;6.20;;;8.90;99.90;;;;;;5052016;28;20292;-71
2023/04/22 03:52:05;;;;;;;10.03;6.00;;;8.90;99.90;;;;;;5041857;28;20056;-71
2023/04/22 03:54:30;;;;;;;11.80;6.83;;;8.80;99.90;;;;;;5054533;28;20105;-71
2023/04/22 03:56:56;;;;;;;11.60;6.57;;;8.80;99.90;;;;;;5018589;28;20772;-71
2023/04/22 03:59:22;;;;;;;12.15;7.43;;;8.80;99.90;;;;;;5020838;28;20040;-71
2023/04/22 04:01:50;;;;;;;11.87;6.67;;;8.80;99.90;;;;;;5014088;28;20094;-71
2023/04/22 04:04:16;;;;;;;9.80;6.57;;;8.80;99.90;;;;;;5053716;28;20340;-71
2023/04/22 04:06:41;;;;;;;11.13;6.17;;;8.70;99.90;;;;;;5040326;28;20148;-71
2023/04/22 04:09:07;;;;;;;11.53;6.93;;;8.80;99.90;;;;;;5041646;28;20446;-72
2023/04/22 04:11:33;;;;;;;9.13;5.70;;;8.70;99.90;;;;;;5052826;28;20235;-71
2023/04/22 04:13:58;;;;;;;8.40;5.37;;;8.70;99.90;;;;;;5047763;28;20709;-71
2023/04/22 04:16:24;;;;;;;9.13;5.83;;;8.70;99.90;;;;;;5018893;28;20040;-71
2023/04/22 04:18:50;;;;;;;9.57;5.83;;;8.70;99.90;;;;;;5032653;28;20441;-71
2023/04/22 04:21:16;;;;;;;8.98;5.20;;;8.70;99.90;;;;;;5033736;28;20773;-71
2023/04/22 04:23:41;;;;;;;9.75;6.15;;;8.70;99.90;;;;;;5042543;28;20044;-71
2023/04/22 04:26:10;;;;;;;7.90;5.10;;;8.60;99.90;;;;;;5040052;28;20352;-71
2023/04/22 04:28:36;;;;;;;8.38;5.55;;;8.60;99.90;;;;;;5034941;28;20056;-71
2023/04/22 04:31:01;;;;;;;11.03;6.03;;;8.60;99.90;;;;;;5017396;28;20045;-71
2023/04/22 04:33:30;;;;;;;9.87;5.70;;;8.70;99.90;;;;;;5040503;28;20132;-71
2023/04/22 04:35:57;;;;;;;10.23;6.68;;;8.60;99.90;;;;;;5041398;28;20049;-71
2023/04/22 04:38:23;;;;;;;;;;;8.60;99.90;;;;;;5025264;28;20028;-71
2023/04/22 04:40:52;;;;;;;10.80;6.53;;;8.60;99.90;;;;;;5040043;28;19917;-72
2023/04/22 04:43:24;;;;;;;8.82;6.25;;;8.60;99.90;;;;;;5045624;28;20055;-71
2023/04/22 04:45:50;;;;;;;9.57;6.68;;;8.60;99.90;;;;;;5047405;28;20277;-71
2023/04/22 04:48:18;;;;;;;9.27;6.30;;;8.60;99.90;;;;;;5036628;28;20055;-72
2023/04/22 04:50:44;;;;;;;9.80;6.43;;;8.70;99.90;;;;;;5038003;28;20067;-71
2023/04/22 04:53:10;;;;;;;10.73;6.40;;;8.70;99.90;;;;;;5041511;28;20040;-71
2023/04/22 04:55:36;;;;;;;10.10;6.68;;;8.70;99.90;;;;;;5041981;28;20088;-71
2023/04/22 04:58:02;;;;;;;10.48;6.50;;;8.70;99.90;;;;;;5062914;28;20044;-71
2023/04/22 05:00:28;;;;;;;8.97;6.43;;;8.80;99.90;;;;;;5032630;28;20151;-71
2023/04/22 05:02:53;;;;;;;9.03;6.20;;;8.80;99.90;;;;;;5040486;28;20522;-71
2023/04/22 05:05:19;;;;;;;10.40;6.80;;;8.80;99.90;;;;;;5042616;28;20374;-73
2023/04/22 05:07:45;;;;;;;12.27;7.30;;;8.90;99.90;;;;;;5050902;28;20125;-71
2023/04/22 05:10:11;;;;;;;12.40;7.03;;;8.90;99.90;;;;;;5064322;28;20724;-71
2023/04/22 05:12:36;;;;;;;10.40;7.00;;;8.90;99.90;;;;;;5060771;28;20314;-71
2023/04/22 05:15:02;;;;;;;13.00;7.30;;;8.90;99.90;;;;;;5047580;28;20270;-70
2023/04/22 05:17:29;;;;;;;12.35;7.50;;;8.90;99.90;;;;;;5044577;28;20039;-72
2023/04/22 05:19:54;;;;;;;12.45;7.55;;;8.90;99.90;;;;;;5043067;28;20052;-72
2023/04/22 05:22:23;;;;;;;11.00;7.63;;;8.90;99.90;;;;;;5030783;28;20044;-71
2023/04/22 05:24:48;;;;;;;10.18;6.93;;;8.90;99.90;;;;;;5061767;28;20044;-71
2023/04/22 05:27:14;;;;;;;10.43;7.20;;;8.90;99.90;;;;;;5041058;28;20121;-72
2023/04/22 05:29:40;;;;;;;9.73;6.90;;;8.90;99.90;;;;;;5047709;28;20042;-71
2023/04/22 05:32:07;;;;;;;11.90;7.57;;;9.00;99.90;;;;;;5037910;28;20044;-71
2023/04/22 05:34:35;;;;;;;12.57;6.85;;;9.00;99.90;;;;;;5064565;28;20444;-71
2023/04/22 05:37:02;;;;;;;12.85;7.03;;;9.00;99.90;;;;;;5038106;28;20041;-71
2023/04/22 05:39:28;;;;;;;11.52;7.25;;;9.00;99.90;;;;;;5063365;28;20067;-71
2023/04/22 05:42:00;;;;;;;9.40;6.55;;;9.00;99.90;;;;;;5043191;28;20040;-72
2023/04/22 05:44:26;;;;;;;12.85;7.78;;;9.00;99.90;;;;;;5044739;28;20169;-71
2023/04/22 05:46:52;;;;;;;15.90;7.60;;;9.00;99.90;;;;;;5041869;28;20044;-71
2023/04/22 05:49:17;;;;;;;13.43;7.43;;;9.00;99.90;;;;;;5041949;28;20051;-71
2023/04/22 05:51:43;;;;;;;11.37;6.70;;;9.00;99.90;;;;;;5052467;28;20479;-71
2023/04/22 05:54:11;;;;;;;13.50;7.00;;;9.00;99.90;;;;;;5030758;28;20040;-73
2023/04/22 05:56:37;;;;;;;14.63;7.30;;;9.00;99.90;;;;;;5045684;28;20519;-71
2023/04/22 05:59:02;;;;;;;12.97;8.37;;;9.00;99.90;;;;;;5048034;28;20078;-71
2023/04/22 06:01:31;;;;;;;9.95;6.75;;;9.00;99.90;;;;;;5061032;28;20040;-71
2023/04/22 06:03:56;;;;;;;10.48;7.13;;;9.10;99.90;;;;;;5046231;28;20095;-71
2023/04/22 06:06:22;;;;;;;11.60;7.20;;;9.00;99.90;;;;;;5040097;28;20072;-71
2023/04/22 06:08:48;;;;;;;10.95;7.25;;;9.10;99.90;;;;;;5040771;28;20052;-71
2023/04/22 06:11:14;;;;;;;10.93;6.60;;;9.10;99.90;;;;;;5042998;28;20455;-71
2023/04/22 06:13:40;;;;;;;12.32;7.57;;;9.10;99.90;;;;;;5042952;28;20041;-71
2023/04/22 06:16:05;;;;;;;11.17;7.50;;;9.20;99.90;;;;;;5044062;28;20495;-71
2023/04/22 06:18:31;;;;;;;13.17;8.07;;;9.20;99.90;;;;;;5046730;28;20040;-71
2023/04/22 06:20:57;;;;;;;12.30;7.35;;;9.20;99.90;;;;;;5042154;28;20072;-72
2023/04/22 06:23:23;;;;;;;12.17;7.57;;;9.20;99.90;;;;;;5044318;28;20072;-71
2023/04/22 06:25:48;;;;;;;12.90;8.20;;;9.30;99.90;;;;;;5047756;28;20128;-71
2023/04/22 06:28:14;;;;;;;14.30;7.47;;;9.40;99.90;;;;;;5054401;28;20098;-71
2023/04/22 06:30:39;;;;;;;12.00;7.50;;;9.40;99.90;;;;;;5036008;28;20167;-71
2023/04/22 06:33:05;;;;;;;12.10;8.00;;;9.40;99.90;;;;;;5038427;28;20063;-71
2023/04/22 06:35:31;;;;;;;12.43;7.90;;;9.50;99.90;;;;;;5031245;28;20045;-71
2023/04/22 06:37:57;;;;;;;12.40;7.68;;;9.50;99.90;;;;;;5060322;28;20036;-71
2023/04/22 06:40:22;;;;;;;13.30;8.33;;;9.50;99.90;;;;;;5059191;28;20143;-71
2023/04/22 06:42:48;;;;;;;12.07;8.07;;;9.60;99.90;;;;;;5041974;28;20408;-71
2023/04/22 06:45:13;;;;;;;13.40;8.40;;;9.60;99.90;;;;;;5055056;28;20923;-71
2023/04/22 06:47:39;;;;;;;11.70;8.57;;;9.70;99.90;;;;;;5029160;28;20045;-71
2023/04/22 06:50:08;;;;;;;12.17;7.83;;;9.80;99.90;;;;;;5044947;28;20118;-71
2023/04/22 06:52:34;;;;;;;13.10;7.70;;;9.80;99.90;;;;;;5047045;28;20277;-71
2023/04/22 06:55:02;;;;;;;14.40;8.98;;;9.80;99.90;;;;;;5051473;28;20098;-71
2023/04/22 06:57:28;;;;;;;12.40;7.90;;;9.90;99.90;;;;;;5045390;28;20047;-71
2023/04/22 06:59:54;;;;;;;14.00;7.70;;;10.00;99.90;;;;;;5053140;28;20052;-71
2023/04/22 07:02:20;;;;;;;13.30;8.00;;;10.00;99.90;;;;;;5040810;28;20044;-71
2023/04/22 07:04:46;;;;;;;;;;;10.10;99.90;;;;;;5056228;28;20048;-71
2023/04/22 07:07:12;;;;;;;14.85;7.43;;;10.20;99.90;;;;;;5044344;28;19924;-72
2023/04/22 07:09:38;;;;;;;13.98;7.68;;;10.30;99.90;;;;;;5029690;28;20044;-72
2023/04/22 07:12:04;;;;;;;13.57;8.43;;;10.40;99.90;;;;;;5039957;28;20049;-71
2023/04/22 07:14:31;;;;;;;15.13;7.47;;;10.40;99.90;;;;;;5058520;28;20047;-71
2023/04/22 07:16:57;;;;;;;11.63;7.32;;;10.50;99.90;;;;;;5041714;28;20097;-71
2023/04/22 07:19:23;;;;;;;14.93;8.20;;;10.60;99.90;;;;;;5042916;28;20122;-71
2023/04/22 07:21:49;;;;;;;12.70;7.82;;;10.70;99.90;;;;;;5035329;28;20056;-71
2023/04/22 07:24:14;;;;;;;13.40;7.80;;;10.80;99.90;;;;;;5045906;28;20044;-71
2023/04/22 07:26:42;;;;;;;11.95;7.78;;;10.80;99.90;;;;;;5045431;28;20071;-71
2023/04/22 07:29:08;;;;;;;12.30;8.13;;;10.90;99.90;;;;;;5033966;28;20041;-71
2023/04/22 07:31:36;;;;;;;12.63;8.15;;;11.00;99.90;;;;;;5058756;28;20101;-72
2023/04/22 07:34:02;;;;;;;15.40;8.48;;;11.10;99.90;;;;;;5048403;28;20077;-72
2023/04/22 07:36:28;;;;;;;13.27;7.87;;;11.30;99.90;;;;;;5045663;28;20045;-72
2023/04/22 07:38:56;;;;;;;13.95;8.30;;;11.30;99.90;;;;;;5057395;28;20406;-72
2023/04/22 07:41:22;;;;;;;13.00;8.20;;;11.40;99.90;;;;;;5050495;28;20043;-72
2023/04/22 07:43:47;;;;;;;14.27;8.90;;;11.50;99.90;;;;;;5042082;28;20488;-71
2023/04/22 07:46:13;;;;;;;14.73;8.37;;;11.60;99.90;;;;;;5053975;28;20040;-72
2023/04/22 07:48:39;;;;;;;12.47;8.10;;;11.70;99.90;;;;;;5040398;28;20068;-72
2023/04/22 07:51:04;;;;;;;15.00;7.60;;;11.80;99.90;;;;;;5063839;28;20413;-72
2023/04/22 07:53:30;;;;;;;12.63;8.17;;;11.80;99.90;;;;;;5056978;28;20032;-71
2023/04/22 07:55:55;;;;;;;14.37;8.37;;;11.90;99.90;;;;;;5034520;28;20051;-72
2023/04/22 07:58:21;;;;;;;13.60;8.10;;;12.00;99.90;;;;;;5044031;28;20048;-72
2023/04/22 08:00:47;;;;;;;15.13;8.50;;;12.10;99.90;;;;;;5036726;28;20447;-72
2023/04/22 08:03:12;;;;;;;12.50;7.45;;;12.10;99.90;;;;;;5041820;28;20121;-71
2023/04/22 08:05:38;;;;;;;12.65;8.20;;;12.20;99.90;;;;;;5049509;28;20063;-72
2023/04/22 08:08:07;;;;;;;12.00;8.33;;;12.30;99.90;;;;;;5045458;28;20618;-72
2023/04/22 08:10:33;;;;;;;17.48;8.45;;;12.40;99.90;;;;;;5040870;28;20289;-72
2023/04/22 08:12:58;;;;;;;13.70;8.23;;;12.50;99.90;;;;;;5044331;28;20048;-71
2023/04/22 08:15:24;;;;;;;12.93;7.50;;;12.50;99.90;;;;;;5040269;28;20142;-71
2023/04/22 08:17:53;;;;;;;12.73;7.63;;;12.70;99.90;;;;;;5038282;28;20072;-70
2023/04/22 08:20:19;;;;;;;12.52;8.13;;;12.70;99.90;;;;;;5041370;28;20044;-71
2023/04/22 08:22:45;;;;;;;17.03;8.77;;;12.80;99.90;;;;;;5036837;28;20129;-71
2023/04/22 08:25:11;;;;;;;13.63;8.73;;;12.90;99.90;;;;;;5060754;28;20482;-71
2023/04/22 08:27:39;;;;;;;13.90;8.60;;;13.10;99.90;;;;;;5038013;28;20048;-71
2023/04/22 08:30:06;;;;;;;14.45;9.00;;;13.10;99.90;;;;;;5040695;28;20174;-71
2023/04/22 08:32:31;;;;;;;;;;;13.20;99.90;;;;;;5021705;28;20098;-73
2023/04/22 08:34:57;;;;;;;14.27;8.35;;;13.30;99.90;;;;;;5047591;28;19920;-76
2023/04/22 08:37:23;;;;;;;16.73;9.30;;;13.40;99.90;;;;;;5040818;28;20144;-72
2023/04/22 08:42:16;;;;;;;14.80;8.48;;;13.60;99.90;;;;;;5000980;28;20384;-74
2023/04/22 08:44:43;;;;;;;11.15;7.68;;;13.60;99.90;;;;;;4997208;28;20053;-73
2023/04/22 08:47:10;;;;;;;14.00;8.65;;;13.70;99.90;;;;;;5001429;28;20424;-72
2023/04/22 08:49:36;;;;;;;15.07;8.85;;;13.70;99.90;;;;;;5001046;28;20513;-73
2023/04/22 08:52:02;;;;;;;;;;;13.80;99.90;;;;;;4998891;28;20050;-76
2023/04/22 08:54:27;;;;;;;12.10;8.07;;;13.80;99.90;;;;;;4996866;28;20379;-74
2023/04/22 08:56:54;;;;;;;13.70;8.60;;;13.90;99.90;;;;;;4999315;28;20034;-76
2023/04/22 08:59:21;;;;;;;14.32;8.63;;;14.00;99.90;;;;;;5001615;28;20037;-72
2023/04/22 09:01:51;;;;;;;13.68;8.45;;;14.10;99.90;;;;;;4999757;28;20420;-76
2023/04/22 09:04:18;;;;;;;11.88;8.52;;;14.20;99.90;;;;;;5000337;28;20038;-74
2023/04/22 09:06:43;;;;;;;13.18;8.30;;;14.30;99.90;;;;;;4998435;28;20046;-72
2023/04/22 09:09:09;;;;;;;13.60;8.63;;;14.40;99.90;;;;;;4995423;28;20498;-74
2023/04/22 09:11:36;;;;;;;15.05;8.70;;;14.50;99.90;;;;;;4999235;28;20053;-73
2023/04/22 09:14:05;;;;;;;12.80;7.75;;;14.60;99.90;;;;;;4998024;28;20049;-73
2023/04/22 09:16:32;;;;;;;12.93;7.95;;;14.70;99.90;;;;;;4976853;28;20050;-77
2023/04/22 09:18:58;;;;;;;12.15;8.85;;;14.80;99.90;;;;;;4998899;28;20068;-72
2023/04/22 09:21:24;;;;;;;;;;;14.90;99.90;;;;;;4995917;28;20571;-72
2023/04/22 09:23:54;;;;;;;13.00;8.13;;;15.10;99.90;;;;;;5002313;28;19917;-72
2023/04/22 09:26:22;;;;;;;15.18;8.18;;;15.10;99.90;;;;;;4999829;28;20053;-72
2023/04/22 09:28:53;;;;;;;12.18;8.25;;;15.10;99.90;;;;;;4985207;28;20407;-72
2023/04/22 09:31:20;;;;;;;12.52;8.48;;;15.10;99.90;;;;;;5002040;28;20057;-72
2023/04/22 09:33:48;;;;;;;13.00;7.85;;;15.20;99.90;;;;;;5004740;28;20533;-74
2023/04/22 09:36:14;;;;;;;11.88;7.53;;;15.20;99.90;;;;;;4983562;28;20107;-75
2023/04/22 09:38:40;;;;;;;14.65;8.80;;;15.30;99.90;;;;;;4997598;28;20042;-72
2023/04/22 09:41:11;;;;;;;11.88;7.72;;;15.30;99.90;;;;;;4999301;28;20533;-74
2023/04/22 09:43:37;;;;;;;10.95;7.20;;;15.40;99.90;;;;;;5003401;28;20084;-73
2023/04/22 09:46:03;;;;;;;12.57;8.10;;;15.50;99.90;;;;;;4997928;28;20042;-72
2023/04/22 09:48:29;;;;;;;13.88;8.23;;;15.60;99.90;;;;;;4992819;28;20064;-73
2023/04/22 09:50:54;;;;;;;10.13;6.82;;;15.70;99.90;;;;;;4994898;28;20080;-76
2023/04/22 09:53:21;;;;;;;11.98;7.55;;;15.90;99.90;;;;;;4995442;28;20124;-73
2023/04/22 09:55:53;;;;;;;10.77;8.00;;;16.00;99.90;;;;;;4994185;28;21229;-74
2023/04/22 09:58:22;;;;;;;15.50;7.88;;;16.20;99.90;;;;;;4990821;28;20046;-75
2023/04/22 10:00:54;;;;;;;12.05;8.00;;;16.30;99.90;;;;;;4994489;28;20038;-73
2023/04/22 10:03:20;;;;;;;13.40;7.75;;;16.40;99.90;;;;;;4992598;28;20038;-75
2023/04/22 10:05:46;;;;;;;12.45;7.40;;;16.50;99.90;;;;;;4991035;28;20049;-75
2023/04/22 10:08:14;;;;;;;11.65;7.35;;;16.60;99.90;;;;;;4994394;28;20124;-72
2023/04/22 10:10:41;;;;;;;11.77;7.32;;;16.70;99.90;;;;;;4988758;28;20448;-72
2023/04/22 10:13:09;;;;;;;11.68;7.40;;;16.80;99.90;;;;;;4994745;28;20078;-71
2023/04/22 10:15:39;;;;;;;12.00;8.02;;;16.90;99.90;;;;;;4988969;28;20317;-72
2023/04/22 10:18:07;;;;;;;11.15;7.18;;;17.00;99.90;;;;;;4996998;28;20126;-74
2023/04/22 10:20:37;;;;;;;11.57;7.22;;;17.10;99.90;;;;;;4994836;28;20038;-72
2023/04/22 10:23:17;;;;;;;9.68;6.68;;;17.20;99.90;;;;;;4977329;28;20038;-73
2023/04/22 10:25:47;;;;;;;10.68;7.18;;;17.30;99.90;;;;;;4993613;28;20138;-71
2023/04/22 10:28:15;;;;;;;10.95;7.40;;;17.30;99.90;;;;;;4991402;28;20041;-72
2023/04/22 10:30:41;;;;;;;10.85;6.25;;;17.30;99.90;;;;;;4982663;28;20141;-74
2023/04/22 10:33:26;;;;;;;9.55;6.75;;;17.40;99.90;;;;;;5000924;28;20306;-72
2023/04/22 10:36:17;;;;;;;10.00;6.95;;;17.60;99.90;;;;;;5004601;28;20045;-75
2023/04/22 10:38:54;;;;;;;10.10;6.75;;;17.70;99.90;;;;;;4994091;28;20045;-73
2023/04/22 10:41:25;;;;;;;11.35;6.35;;;17.90;99.90;;;;;;4988095;28;20045;-74
2023/04/22 10:43:57;;;;;;;11.00;6.07;;;18.00;99.90;;;;;;4965685;28;20049;-75
2023/04/22 10:46:48;;;;;;;8.52;6.15;;;18.00;99.90;;;;;;4995918;28;20630;-71
2023/04/22 10:49:25;;;;;;;10.65;6.32;;;18.00;99.90;;;;;;4989897;28;20147;-75
2023/04/22 10:52:02;;;;;;;9.90;6.22;;;18.10;99.90;;;;;;4995725;28;22329;-71
2023/04/22 10:54:30;;;;;;;8.90;6.30;;;18.10;99.90;;;;;;4993523;28;20053;-72
2023/04/22 10:57:07;;;;;;;9.48;6.07;;;18.20;99.90;;;;;;4985661;28;20125;-73
2023/04/22 10:59:40;;;;;;;9.68;6.05;;;18.20;99.90;;;;;;4988656;28;20069;-71
2023/04/22 11:02:07;;;;;;;8.20;5.82;;;18.30;99.90;;;;;;4993519;28;20034;-75
2023/04/22 11:04:33;;;;;;;10.45;7.13;;;18.40;99.90;;;;;;4999222;28;20065;-71
2023/04/22 11:07:19;;;;;;;;;;;18.40;99.90;;;;;;4976773;28;21039;-73
2023/04/22 11:10:06;;;;;;;8.20;4.88;;;18.40;99.90;;;;;;4984415;28;19928;-72
2023/04/22 11:12:34;;;;;;;8.18;5.40;;;18.50;99.90;;;;;;4975549;28;20058;-72
2023/04/22 11:15:23;;;;;;;9.80;5.63;;;18.70;99.90;;;;;;4994076;28;20084;-74
2023/04/22 11:17:53;;;;;;;13.00;6.47;;;18.90;99.90;;;;;;4992124;28;20096;-74
2023/04/22 11:20:20;;;;;;;6.75;4.78;;;19.10;99.90;;;;;;5002077;28;20133;-75
2023/04/22 11:22:54;;;;;;;10.45;5.82;;;19.10;99.90;;;;;;4990885;28;20128;-75
2023/04/22 11:25:22;;;;;;;9.80;5.07;;;19.00;99.90;;;;;;4999921;28;20044;-75
2023/04/22 11:27:48;;;;;;;8.13;5.63;;;19.10;99.90;;;;;;4997728;28;20522;-75
2023/04/22 11:30:18;;;;;;;;;;;19.20;99.90;;;;;;5002200;28;20064;-75
2023/04/22 11:32:52;;;;;;;9.40;5.40;;;19.20;99.90;;;;;;4997620;28;20019;-74
2023/04/22 11:35:24;;;;;;;7.50;5.15;;;19.30;99.90;;;;;;4993457;28;20127;-74
2023/04/22 11:37:54;;;;;;;8.95;5.47;;;19.50;99.90;;;;;;4986469;28;20050;-72
2023/04/22 11:40:24;;;;;;;7.90;5.50;;;19.60;99.90;;;;;;4982857;28;20048;-73
2023/04/22 11:42:50;;;;;;;9.00;5.45;;;19.80;99.90;;;;;;4990587;28;20081;-76
2023/04/22 11:45:20;;;;;;;7.95;5.28;;;19.90;99.90;;;;;;4979098;28;20073;-74
2023/04/22 11:47:48;;;;;;;11.02;6.07;;;20.10;99.90;;;;;;4987487;28;20050;-75
2023/04/22 11:50:15;;;;;;;7.32;5.10;;;20.20;99.90;;;;;;4979961;28;20105;-76
2023/04/22 11:52:50;;;;;;;8.35;5.43;;;20.30;99.90;;;;;;4986825;28;20061;-73
2023/04/22 11:55:30;;;;;;;10.93;5.80;;;20.30;99.90;;;;;;4986807;28;20046;-75
2023/04/22 11:58:01;;;;;;;11.80;6.07;;;20.20;99.90;;;;;;4978458;28;20070;-76
2023/04/22 12:00:32;;;;;;;7.32;5.20;;;20.10;99.90;;;;;;4986362;28;20094;-75
2023/04/22 12:03:15;;;;;;;8.55;5.55;;;20.10;99.90;;;;;;4983622;28;20042;-75
2023/04/22 12:05:43;;;;;;;8.90;5.78;;;20.10;99.90;;;;;;4982639;28;20264;-75
2023/04/22 12:08:10;;;;;;;7.47;4.40;;;20.10;99.90;;;;;;4977234;28;20790;-75
2023/04/22 12:10:51;;;;;;;8.40;4.63;;;20.00;99.90;;;;;;4979916;28;20132;-74
2023/04/22 12:13:20;;;;;;;5.97;3.85;;;19.90;99.90;;;;;;5001725;28;20104;-73
2023/04/22 12:15:53;;;;;;;8.13;4.55;;;19.90;99.90;;;;;;4995526;28;20209;-72
2023/04/22 12:18:29;;;;;;;6.20;4.35;;;19.80;99.90;;;;;;4998228;28;20061;-75
2023/04/22 12:21:07;;;;;;;7.10;4.60;;;19.80;99.90;;;;;;4997316;28;20240;-72
2023/04/22 12:23:46;;;;;;;8.25;4.97;;;19.80;99.90;;;;;;4997364;28;20224;-72
2023/04/22 12:26:13;;;;;;;7.05;4.50;;;19.80;99.90;;;;;;4994392;28;20077;-72
2023/04/22 12:28:40;;;;;;;7.93;5.10;;;19.80;99.90;;;;;;4992925;28;20409;-76
2023/04/22 12:31:07;;;;;;;7.60;5.18;;;19.80;99.90;;;;;;4982055;28;20666;-73
2023/04/22 12:33:33;;;;;;;9.10;5.22;;;19.70;99.90;;;;;;4990465;28;20078;-75
2023/04/22 12:35:59;;;;;;;6.53;4.55;;;19.50;99.90;;;;;;4989830;28;20112;-72
2023/04/22 12:38:25;;;;;;;7.75;4.57;;;19.40;99.90;;;;;;5001979;28;20515;-72
2023/04/22 12:40:51;;;;;;;7.03;4.78;;;19.30;99.90;;;;;;4997706;28;20408;-72
2023/04/22 12:43:17;;;;;;;9.40;4.80;;;19.20;99.90;;;;;;4989923;28;20124;-72
2023/04/22 12:45:43;;;;;;;8.93;4.72;;;19.20;99.90;;;;;;4990230;28;20058;-75
2023/04/22 12:48:11;;;;;;;7.00;5.68;;;19.20;99.90;;;;;;4993604;28;20037;-72
2023/04/22 12:50:37;;;;;;;7.78;4.40;;;19.10;99.90;;;;;;4982116;28;20042;-73